LICC Airport Information

Runway Information
Runway 08 Length 7989 ft width 148 ft
Elevation 37 ft Threshold 312 ft Heading 84
Runway 26 Length 7989 ft Width 148 ft
Elevation 17 ft Threshold 279 ft Heading 264
Airport Frequencies
Type APP Name APP Frequency 119.25 MHZ
Type DIR Name DIRECTOR Frequency 120.8 MHZ
Type GND Name GND Frequency 129.725 MHZ
Type TWR Name TWR Frequency 118.7 MHZ
Airport Navaids
Type NDB Name Catania Frequency 345 KHZ
Type VOR-DME Name Catania Fontanarossa Frequency 116250 KHZ
Type NDB Name Catania Fontanarossa Frequency 407 KHZ
Airport Weather Information & NOTAM
ADDS - METARS form results

(2037 UTC 20 April 2019)
Data provider http://aviationweather.gov/metar/data/
 
METAR text: LICC 202020Z 06010KT CAVOK 16/13 Q1022
Conditions at: LICC (CATANIA/FONTANAR, IT) observed 2020 UTC 20 April 2019
Temperature: 16.0°C (61°F)
Dewpoint: 13.0°C (55°F) [RH = 82%]
Pressure (altimeter): 30.18 inches Hg (1022.0 mb)
Winds: from the ENE (60 degrees) at 12 MPH (10 knots; 5.1 m/s)
Visibility: 6 or more miles (10+ km)
Ceiling: ceiling and visibility are OK
Clouds: unknown
Weather: no significant weather observed at this time

METAR text: LICC 201950Z 07009KT 9999 FEW120 16/14 Q1023
Conditions at: LICC (CATANIA/FONTANAR, IT) observed 1950 UTC 20 April 2019
Temperature: 16.0°C (61°F)
Dewpoint: 14.0°C (57°F) [RH = 88%]
Pressure (altimeter): 30.21 inches Hg (1023.0 mb)
Winds: from the ENE (70 degrees) at 10 MPH (9 knots; 4.6 m/s)
Visibility: 6 or more miles (10+ km)
Ceiling: at least 12,000 feet AGL
Clouds: few clouds at 12000 feet AGL
Weather: no significant weather observed at this time

Forecast for: LICC (CATANIA/FONTANAR, IT)
Text: TAF LICC 201700Z 2018/2118 07012KT CAVOK
Forecast period: 1800 UTC 20 April 2019 to 1800 UTC 21 April 2019
Forecast type: FROM: standard forecast or significant change
Winds: from the ENE (70 degrees) at 14 MPH (12 knots; 6.2 m/s)
Visibility: 6 or more miles 10+ km)
Ceiling: unknown
Clouds: missing
Weather: NSW  (no significant weather)